createdAt,value
2018-12-30T00:00:51.836Z,4.10
2018-12-30T00:03:26.012Z,4.00
2018-12-30T00:06:00.154Z,4.10
2018-12-30T00:08:35.083Z,4.10
2018-12-30T00:11:09.196Z,4.10
2018-12-30T00:13:43.320Z,4.10
2018-12-30T00:16:18.321Z,4.20
2018-12-30T00:18:53.204Z,4.20
2018-12-30T00:21:27.361Z,4.20
2018-12-30T00:24:01.475Z,4.30
2018-12-30T00:26:35.403Z,4.20
2018-12-30T00:29:09.466Z,4.20
2018-12-30T00:31:43.577Z,4.30
2018-12-30T00:34:17.787Z,4.30
2018-12-30T00:36:51.956Z,4.30
2018-12-30T00:39:25.988Z,4.20
2018-12-30T00:41:59.979Z,4.20
2018-12-30T00:44:34.006Z,4.20
2018-12-30T00:47:07.963Z,4.20
2018-12-30T00:49:42.060Z,4.20
2018-12-30T00:52:16.126Z,4.20
2018-12-30T00:54:50.244Z,4.20
2018-12-30T00:57:24.387Z,4.20
2018-12-30T00:59:58.395Z,4.30
2018-12-30T01:02:32.527Z,4.30
2018-12-30T01:05:06.609Z,4.30
2018-12-30T01:07:41.316Z,4.40
2018-12-30T01:10:15.312Z,4.40
2018-12-30T01:12:49.325Z,4.40
2018-12-30T01:15:23.352Z,4.40
2018-12-30T01:17:58.150Z,4.50
2018-12-30T01:20:32.035Z,4.40
2018-12-30T01:23:06.686Z,4.40
2018-12-30T01:25:40.666Z,4.40
2018-12-30T01:28:14.659Z,4.40
2018-12-30T01:30:48.773Z,4.40
2018-12-30T01:33:22.904Z,4.40
2018-12-30T01:35:57.120Z,4.40
2018-12-30T01:38:31.207Z,4.30
2018-12-30T01:41:05.158Z,4.30
2018-12-30T01:43:39.208Z,4.30
2018-12-30T01:46:13.254Z,4.30
2018-12-30T01:48:47.390Z,4.30
2018-12-30T01:51:22.291Z,4.40
2018-12-30T01:53:56.436Z,4.40
2018-12-30T01:56:30.528Z,4.40
2018-12-30T01:59:04.661Z,4.40
2018-12-30T02:01:38.766Z,4.50
2018-12-30T02:04:12.971Z,4.50
2018-12-30T02:06:47.068Z,4.50
2018-12-30T02:09:21.240Z,4.60
2018-12-30T02:11:55.399Z,4.50
2018-12-30T02:14:29.445Z,4.50
2018-12-30T02:17:04.189Z,4.40
2018-12-30T02:19:38.271Z,4.40
2018-12-30T02:22:13.031Z,4.50
2018-12-30T02:24:47.091Z,4.50
2018-12-30T02:27:21.206Z,4.60
2018-12-30T02:29:55.426Z,4.60
2018-12-30T02:32:29.459Z,4.60
2018-12-30T02:35:04.195Z,4.60
2018-12-30T02:37:38.400Z,4.60
2018-12-30T02:40:12.599Z,4.70
2018-12-30T02:42:46.645Z,4.70
2018-12-30T02:45:20.671Z,4.70
2018-12-30T02:47:54.840Z,4.70
2018-12-30T02:50:28.848Z,4.70
2018-12-30T02:53:02.887Z,4.70
2018-12-30T02:55:36.788Z,4.80
2018-12-30T02:58:10.868Z,4.80
2018-12-30T03:00:45.008Z,4.80
2018-12-30T03:03:19.134Z,4.80
2018-12-30T03:05:53.096Z,4.80
2018-12-30T03:08:27.155Z,4.90
2018-12-30T03:11:01.227Z,4.90
2018-12-30T03:13:35.384Z,4.90
2018-12-30T03:16:09.488Z,4.90
2018-12-30T03:18:43.457Z,5.00
2018-12-30T03:21:18.217Z,5.00
2018-12-30T03:23:52.205Z,4.90
2018-12-30T03:26:26.191Z,5.00
2018-12-30T03:29:00.314Z,5.10
2018-12-30T03:31:34.363Z,5.10
2018-12-30T03:34:08.343Z,5.20
2018-12-30T03:36:42.480Z,5.20
2018-12-30T03:39:17.494Z,5.20
2018-12-30T03:41:51.607Z,5.30
2018-12-30T03:44:26.470Z,5.20
2018-12-30T03:47:01.272Z,5.20
2018-12-30T03:49:35.393Z,5.20
2018-12-30T03:52:20.026Z,5.20
2018-12-30T03:54:54.144Z,5.20
2018-12-30T03:57:28.133Z,5.20
2018-12-30T04:00:02.062Z,5.30
2018-12-30T04:02:36.138Z,5.30
2018-12-30T04:05:10.231Z,5.30
2018-12-30T04:07:45.075Z,5.40
2018-12-30T04:10:19.224Z,5.40
2018-12-30T04:12:53.210Z,5.40
2018-12-30T04:15:27.412Z,5.40
2018-12-30T04:18:01.495Z,5.50
2018-12-30T04:20:35.578Z,5.50
2018-12-30T04:23:09.651Z,5.60
2018-12-30T04:25:44.433Z,5.50
2018-12-30T04:28:18.552Z,5.50
2018-12-30T04:30:52.610Z,5.60
2018-12-30T04:33:26.676Z,5.50
2018-12-30T04:36:01.609Z,5.60
2018-12-30T04:38:35.724Z,5.60
2018-12-30T04:41:09.837Z,5.70
2018-12-30T04:43:43.928Z,5.80
2018-12-30T04:46:17.954Z,5.90
2018-12-30T04:48:51.949Z,5.90
2018-12-30T04:51:26.147Z,5.80
2018-12-30T04:54:00.302Z,5.90
2018-12-30T04:56:34.430Z,5.90
2018-12-30T04:59:08.404Z,5.80
2018-12-30T05:01:42.541Z,5.80
2018-12-30T05:04:17.507Z,5.80
2018-12-30T05:06:52.396Z,5.80
2018-12-30T05:09:27.296Z,5.80
2018-12-30T05:12:01.278Z,5.80
2018-12-30T05:14:35.390Z,5.90
2018-12-30T05:17:09.551Z,5.90
2018-12-30T05:19:43.584Z,5.80
2018-12-30T05:22:17.568Z,5.80
2018-12-30T05:24:51.716Z,5.80
2018-12-30T05:27:25.827Z,5.80
2018-12-30T05:29:59.992Z,5.80
2018-12-30T05:32:34.112Z,5.90
2018-12-30T05:35:08.103Z,5.90
2018-12-30T05:37:42.020Z,5.90
2018-12-30T05:40:15.964Z,5.90
2018-12-30T05:42:50.030Z,6.10
2018-12-30T05:45:24.072Z,6.10
2018-12-30T05:47:58.154Z,6.10
2018-12-30T05:50:32.205Z,6.10
2018-12-30T05:53:06.279Z,6.00
2018-12-30T05:55:41.164Z,6.00
2018-12-30T05:58:15.280Z,6.00
2018-12-30T06:00:49.294Z,6.10
2018-12-30T06:03:23.392Z,6.30
2018-12-30T06:05:57.508Z,6.40
2018-12-30T06:08:31.597Z,6.40
2018-12-30T06:11:05.689Z,6.40
2018-12-30T06:13:39.912Z,6.30
2018-12-30T06:16:14.115Z,6.30
2018-12-30T06:18:48.091Z,6.40
2018-12-30T06:21:22.188Z,6.50
2018-12-30T06:23:56.284Z,6.60
2018-12-30T06:26:30.335Z,6.70
2018-12-30T06:29:04.445Z,6.70
2018-12-30T06:31:38.564Z,6.70
2018-12-30T06:34:12.641Z,6.70
2018-12-30T06:36:46.857Z,6.70
2018-12-30T06:39:21.017Z,6.70
2018-12-30T06:41:55.104Z,6.80
2018-12-30T06:44:29.187Z,6.80
2018-12-30T06:47:03.327Z,6.80
2018-12-30T06:49:38.322Z,6.90
2018-12-30T06:52:12.508Z,6.90
2018-12-30T06:54:47.409Z,6.90
2018-12-30T06:57:22.251Z,7.00
2018-12-30T06:59:57.063Z,6.90
2018-12-30T07:02:31.152Z,6.90
2018-12-30T07:05:05.321Z,6.90
2018-12-30T07:07:39.377Z,6.90
2018-12-30T07:10:13.476Z,7.00
2018-12-30T07:12:47.596Z,7.00
2018-12-30T07:15:21.741Z,7.10
2018-12-30T07:17:55.864Z,7.00
2018-12-30T07:20:29.969Z,7.00
2018-12-30T07:23:05.997Z,7.10
2018-12-30T07:25:39.127Z,7.00
2018-12-30T07:28:13.201Z,7.00
2018-12-30T07:30:47.252Z,7.00
2018-12-30T07:33:23.057Z,7.10
2018-12-30T07:35:55.455Z,7.00
2018-12-30T07:38:29.576Z,6.70
2018-12-30T07:41:03.666Z,6.70
2018-12-30T07:43:37.731Z,6.60
2018-12-30T07:46:11.739Z,6.60
2018-12-30T07:48:45.758Z,6.50
2018-12-30T07:51:19.766Z,6.40
2018-12-30T07:53:53.712Z,6.40
2018-12-30T07:56:27.756Z,6.50
2018-12-30T07:59:01.892Z,6.40
2018-12-30T08:01:36.203Z,6.40
2018-12-30T08:04:11.597Z,6.60
2018-12-30T08:06:45.829Z,6.60
2018-12-30T08:09:20.962Z,6.50
2018-12-30T08:11:55.978Z,6.60
2018-12-30T08:14:30.150Z,6.60
2018-12-30T08:17:04.373Z,6.50
2018-12-30T08:19:38.682Z,6.60
2018-12-30T08:22:12.970Z,6.60
2018-12-30T08:24:47.190Z,6.70
2018-12-30T08:27:21.437Z,6.70
2018-12-30T08:29:55.520Z,6.80
2018-12-30T08:32:29.740Z,6.80
2018-12-30T08:35:04.079Z,6.90
2018-12-30T08:37:38.257Z,7.00
2018-12-30T08:40:12.393Z,7.00
2018-12-30T08:42:46.723Z,7.00
2018-12-30T08:45:20.896Z,7.10
2018-12-30T08:47:55.031Z,7.20
2018-12-30T08:50:29.252Z,7.20
2018-12-30T08:53:03.309Z,7.20
2018-12-30T08:55:37.296Z,7.30
2018-12-30T08:58:11.301Z,7.40
2018-12-30T09:00:45.452Z,7.40
2018-12-30T09:03:19.539Z,7.40
2018-12-30T09:05:53.532Z,7.30
2018-12-30T09:08:27.563Z,7.40
2018-12-30T09:11:01.774Z,7.30
2018-12-30T09:13:35.859Z,7.50
2018-12-30T09:16:09.955Z,7.50
2018-12-30T09:18:45.013Z,7.40
2018-12-30T09:21:19.053Z,7.40
2018-12-30T09:23:53.173Z,7.40
2018-12-30T09:26:27.297Z,7.50
2018-12-30T09:29:01.395Z,7.50
2018-12-30T09:31:35.506Z,7.50
2018-12-30T09:34:10.429Z,7.60
2018-12-30T09:36:45.295Z,7.50
2018-12-30T09:39:19.607Z,7.50
2018-12-30T09:41:54.680Z,7.70
2018-12-30T09:44:29.410Z,7.70
2018-12-30T09:47:03.529Z,7.60
2018-12-30T09:49:37.917Z,7.70
2018-12-30T09:52:12.047Z,7.60
2018-12-30T09:54:46.140Z,7.60
2018-12-30T09:57:21.148Z,7.60
2018-12-30T09:59:55.177Z,7.70
2018-12-30T10:02:29.384Z,7.70
2018-12-30T10:05:08.891Z,7.70
2018-12-30T10:07:48.491Z,7.50
2018-12-30T10:10:34.658Z,7.60
2018-12-30T10:13:08.706Z,7.50
2018-12-30T10:15:43.885Z,7.80
2018-12-30T10:18:17.818Z,7.80
2018-12-30T10:20:51.804Z,8.30
2018-12-30T10:23:25.840Z,8.60
2018-12-30T10:26:00.139Z,8.20
2018-12-30T10:28:34.174Z,8.00
2018-12-30T10:31:08.260Z,8.00
2018-12-30T10:33:42.561Z,7.80
2018-12-30T10:36:16.721Z,7.60
2018-12-30T10:42:58.071Z,7.60
2018-12-30T10:45:32.233Z,7.70
2018-12-30T10:48:06.233Z,7.60
2018-12-30T10:50:41.077Z,8.10
2018-12-30T10:53:15.147Z,8.00
2018-12-30T10:55:49.313Z,8.20
2018-12-30T10:58:24.301Z,7.70
2018-12-30T11:00:59.099Z,7.80
2018-12-30T11:03:33.345Z,7.80
2018-12-30T11:06:07.390Z,8.00
2018-12-30T11:08:41.348Z,7.90
2018-12-30T11:11:15.357Z,7.90
2018-12-30T11:13:50.294Z,8.10
2018-12-30T11:16:24.294Z,8.10
2018-12-30T11:18:58.366Z,8.00
2018-12-30T11:21:32.517Z,7.90
2018-12-30T11:24:08.799Z,7.80
2018-12-30T11:26:41.360Z,7.90
2018-12-30T11:29:15.667Z,7.80
2018-12-30T11:31:49.676Z,7.80
2018-12-30T11:34:23.791Z,7.80
2018-12-30T11:36:57.936Z,8.00
2018-12-30T11:39:32.008Z,8.10
2018-12-30T11:42:06.163Z,7.80
2018-12-30T11:44:40.225Z,7.50
2018-12-30T11:47:14.207Z,7.40
2018-12-30T11:49:48.407Z,7.40
2018-12-30T11:52:22.557Z,7.60
2018-12-30T11:54:56.614Z,7.80
2018-12-30T11:57:30.582Z,8.00
2018-12-30T12:00:04.813Z,8.10
2018-12-30T12:02:38.815Z,8.40
2018-12-30T12:05:12.869Z,8.30
2018-12-30T12:07:47.665Z,8.00
2018-12-30T12:10:21.776Z,8.00
2018-12-30T12:12:55.809Z,8.10
2018-12-30T12:15:30.041Z,8.00
2018-12-30T12:18:04.050Z,8.10
2018-12-30T12:20:38.021Z,8.00
2018-12-30T12:23:12.166Z,8.10
2018-12-30T12:25:46.410Z,8.10
2018-12-30T12:28:20.477Z,8.00
2018-12-30T12:30:54.590Z,8.10
2018-12-30T12:33:28.737Z,8.20
2018-12-30T12:36:02.830Z,8.20
2018-12-30T12:38:36.826Z,8.20
2018-12-30T12:41:11.000Z,8.20
2018-12-30T12:43:45.063Z,8.20
2018-12-30T12:46:19.128Z,8.20
2018-12-30T12:48:53.190Z,8.20
2018-12-30T12:51:27.092Z,8.20
2018-12-30T12:54:01.210Z,8.20
2018-12-30T12:56:35.359Z,8.10
2018-12-30T12:59:09.437Z,8.10
2018-12-30T13:01:43.446Z,8.10
2018-12-30T13:04:18.403Z,8.30
2018-12-30T13:06:52.401Z,8.30
2018-12-30T13:09:27.318Z,8.30
2018-12-30T13:12:01.318Z,8.20
2018-12-30T13:14:35.382Z,8.20
2018-12-30T13:17:10.377Z,8.20
2018-12-30T13:19:44.358Z,8.20
2018-12-30T13:22:19.289Z,8.00
2018-12-30T13:24:53.257Z,8.00
2018-12-30T13:27:27.496Z,7.90
2018-12-30T13:30:01.652Z,7.80
2018-12-30T13:32:35.836Z,7.80
2018-12-30T13:35:10.034Z,7.70
2018-12-30T13:37:44.260Z,7.70
2018-12-30T13:40:20.198Z,7.70
2018-12-30T13:42:52.495Z,7.70
2018-12-30T13:45:26.628Z,7.60
2018-12-30T13:48:00.713Z,7.60
2018-12-30T13:50:35.704Z,7.60
2018-12-30T13:53:10.529Z,7.60
2018-12-30T13:55:44.603Z,7.60
2018-12-30T13:58:18.779Z,7.50
2018-12-30T14:00:52.992Z,7.60
2018-12-30T14:03:27.188Z,7.50
2018-12-30T14:06:01.155Z,7.60
2018-12-30T14:08:35.292Z,7.50
2018-12-30T14:11:09.317Z,7.60
2018-12-30T14:13:43.436Z,7.50
2018-12-30T14:16:18.186Z,7.50
2018-12-30T14:18:52.246Z,7.50
2018-12-30T14:21:26.365Z,7.50
2018-12-30T14:24:00.358Z,7.50
2018-12-30T14:26:34.471Z,7.60
2018-12-30T14:29:09.288Z,7.40
2018-12-30T14:31:43.272Z,7.40
2018-12-30T14:34:17.370Z,7.40
2018-12-30T14:36:51.387Z,7.40
2018-12-30T14:39:25.580Z,7.40
2018-12-30T14:41:59.707Z,7.40
2018-12-30T14:44:33.780Z,7.30
2018-12-30T14:47:08.649Z,7.50
2018-12-30T14:49:42.882Z,7.40
2018-12-30T14:52:16.911Z,7.60
2018-12-30T14:54:50.956Z,7.40
2018-12-30T14:57:25.032Z,7.50
2018-12-30T14:59:59.093Z,7.50
2018-12-30T15:02:33.289Z,7.60
2018-12-30T15:05:08.196Z,7.40
2018-12-30T15:07:42.177Z,7.40
2018-12-30T15:10:16.111Z,7.50
2018-12-30T15:12:50.170Z,7.50
2018-12-30T15:15:24.268Z,7.60
2018-12-30T15:17:58.422Z,7.60
2018-12-30T15:20:33.157Z,7.50
2018-12-30T15:23:08.069Z,7.40
2018-12-30T15:25:42.149Z,7.40
2018-12-30T15:28:16.291Z,7.40
2018-12-30T15:30:50.486Z,7.40
2018-12-30T15:33:24.604Z,7.30
2018-12-30T15:35:58.659Z,7.20
2018-12-30T15:38:32.945Z,7.20
2018-12-30T15:41:06.887Z,7.20
2018-12-30T15:43:41.022Z,7.10
2018-12-30T15:46:17.025Z,7.10
2018-12-30T15:48:49.331Z,7.10
2018-12-30T15:51:24.121Z,7.20
2018-12-30T15:53:58.969Z,7.20
2018-12-30T15:56:33.116Z,7.10
2018-12-30T15:59:07.256Z,7.20
2018-12-30T16:01:41.195Z,7.20
2018-12-30T16:04:15.373Z,7.20
2018-12-30T16:06:49.418Z,7.10
2018-12-30T16:09:23.621Z,7.20
2018-12-30T16:11:57.729Z,7.10
2018-12-30T16:14:32.508Z,7.00
2018-12-30T16:17:06.648Z,6.90
2018-12-30T16:19:41.590Z,7.00
2018-12-30T16:22:15.697Z,7.00
2018-12-30T16:24:49.857Z,7.00
2018-12-30T16:27:24.007Z,7.10
2018-12-30T16:29:58.171Z,7.00
2018-12-30T16:32:33.028Z,7.00
2018-12-30T16:35:07.132Z,7.00
2018-12-30T16:37:41.131Z,7.00
2018-12-30T16:40:16.081Z,7.10
2018-12-30T16:42:50.106Z,7.10
2018-12-30T16:45:24.397Z,7.10
2018-12-30T16:47:58.568Z,7.00
2018-12-30T16:50:32.699Z,7.10
2018-12-30T16:53:06.852Z,7.10
2018-12-30T16:55:40.811Z,7.10
2018-12-30T16:58:14.870Z,7.10
2018-12-30T17:00:49.056Z,7.20
2018-12-30T17:03:23.057Z,7.30
2018-12-30T17:05:57.088Z,7.30
2018-12-30T17:08:31.100Z,7.30
2018-12-30T17:11:05.242Z,7.20
2018-12-30T17:13:39.239Z,7.00
2018-12-30T17:16:13.372Z,7.10
2018-12-30T17:18:47.367Z,7.00
2018-12-30T17:21:22.212Z,7.00
2018-12-30T17:23:56.164Z,7.00
2018-12-30T17:26:30.320Z,6.90
2018-12-30T17:29:04.460Z,7.00
2018-12-30T17:31:39.164Z,7.00
2018-12-30T17:34:13.240Z,7.00
2018-12-30T17:36:47.286Z,7.10
2018-12-30T17:39:21.333Z,7.00
2018-12-30T17:41:55.463Z,7.00
2018-12-30T17:44:29.661Z,7.00
2018-12-30T17:47:03.648Z,7.00
2018-12-30T17:49:37.773Z,7.00
2018-12-30T17:52:12.509Z,6.90
2018-12-30T17:54:46.609Z,6.90
2018-12-30T17:57:20.680Z,6.90
2018-12-30T17:59:54.878Z,7.00
2018-12-30T18:02:29.909Z,6.90
2018-12-30T18:05:03.954Z,6.80
2018-12-30T18:07:38.004Z,6.80
2018-12-30T18:10:12.759Z,7.00
2018-12-30T18:12:46.840Z,7.00
2018-12-30T18:15:21.068Z,6.90
2018-12-30T18:17:55.051Z,7.00
2018-12-30T18:20:29.788Z,6.80
2018-12-30T18:23:04.623Z,7.00
2018-12-30T18:25:38.685Z,7.00
2018-12-30T18:28:12.900Z,7.10
2018-12-30T18:30:46.934Z,7.00
2018-12-30T18:33:20.978Z,7.10
2018-12-30T18:35:55.700Z,7.30
2018-12-30T18:38:30.608Z,7.10
2018-12-30T18:41:05.507Z,7.10
2018-12-30T18:43:40.391Z,7.00
2018-12-30T18:46:15.132Z,6.90
2018-12-30T18:48:49.156Z,6.90
2018-12-30T18:51:23.265Z,7.00
2018-12-30T18:53:57.328Z,7.00
2018-12-30T18:56:31.565Z,7.00
2018-12-30T18:59:06.522Z,7.10
2018-12-30T19:01:41.030Z,7.00
2018-12-30T19:04:15.759Z,7.30
2018-12-30T19:06:49.840Z,7.20
2018-12-30T19:09:24.016Z,7.10
2018-12-30T19:11:58.916Z,7.10
2018-12-30T19:14:33.167Z,7.00
2018-12-30T19:17:10.915Z,6.90
2018-12-30T19:19:44.954Z,7.00
2018-12-30T19:22:19.699Z,7.10
2018-12-30T19:24:53.837Z,7.10
2018-12-30T19:27:27.960Z,7.30
2018-12-30T19:30:02.183Z,7.20
2018-12-30T19:32:36.383Z,7.00
2018-12-30T19:35:10.464Z,7.10
2018-12-30T19:37:44.627Z,7.00
2018-12-30T19:40:18.585Z,6.90
2018-12-30T19:42:52.777Z,6.90
2018-12-30T19:45:26.701Z,6.80
2018-12-30T19:48:00.828Z,6.90
2018-12-30T19:50:34.921Z,7.00
2018-12-30T19:53:09.660Z,7.00
2018-12-30T19:55:44.663Z,6.90
2018-12-30T19:58:19.823Z,6.90
2018-12-30T20:00:53.853Z,6.90
2018-12-30T20:03:27.952Z,7.00
2018-12-30T20:06:02.223Z,7.10
2018-12-30T20:08:36.200Z,7.10
2018-12-30T20:11:10.261Z,7.20
2018-12-30T20:13:44.452Z,7.20
2018-12-30T20:16:18.596Z,7.20
2018-12-30T20:18:55.284Z,7.40
2018-12-30T20:21:29.647Z,7.40
2018-12-30T20:24:03.914Z,7.30
2018-12-30T20:26:37.967Z,7.30
2018-12-30T20:29:12.134Z,7.30
2018-12-30T20:31:46.244Z,7.30
2018-12-30T20:34:20.396Z,7.40
2018-12-30T20:36:54.526Z,7.20
2018-12-30T20:39:30.504Z,7.20
2018-12-30T20:42:02.912Z,7.30
2018-12-30T20:44:37.751Z,7.00
2018-12-30T20:47:11.844Z,7.00
2018-12-30T20:49:46.059Z,7.10
2018-12-30T20:52:20.096Z,7.10
2018-12-30T20:54:54.139Z,6.90
2018-12-30T20:57:28.289Z,6.90
2018-12-30T21:00:02.425Z,6.90
2018-12-30T21:02:37.204Z,6.80
2018-12-30T21:05:11.251Z,6.80
2018-12-30T21:07:45.456Z,6.60
2018-12-30T21:10:19.679Z,6.60
2018-12-30T21:12:53.932Z,6.60
2018-12-30T21:15:28.161Z,6.60
2018-12-30T21:18:08.086Z,6.50
2018-12-30T21:20:42.124Z,6.50
2018-12-30T21:23:16.320Z,6.40
2018-12-30T21:25:51.249Z,6.40
2018-12-30T21:28:26.085Z,6.50
2018-12-30T21:31:00.192Z,6.50
2018-12-30T21:33:34.147Z,6.50
2018-12-30T21:36:08.232Z,6.50
2018-12-30T21:38:42.327Z,6.40
2018-12-30T21:41:20.659Z,6.50
2018-12-30T21:43:54.640Z,6.40
2018-12-30T21:46:28.672Z,6.40
2018-12-30T21:49:02.776Z,6.40
2018-12-30T21:51:37.716Z,6.40
2018-12-30T21:54:12.707Z,6.30
2018-12-30T21:56:54.542Z,6.30
2018-12-30T21:59:22.097Z,6.20
2018-12-30T22:01:56.321Z,6.20
2018-12-30T22:04:31.167Z,6.20
2018-12-30T22:07:05.661Z,6.20
2018-12-30T22:09:40.036Z,6.40
2018-12-30T22:12:14.207Z,6.40
2018-12-30T22:14:48.484Z,6.40
2018-12-30T22:17:23.380Z,6.20
2018-12-30T22:19:58.248Z,6.30
2018-12-30T22:22:32.558Z,6.30
2018-12-30T22:25:06.984Z,6.40
2018-12-30T22:27:41.056Z,6.30
2018-12-30T22:30:15.746Z,6.30
2018-12-30T22:32:49.901Z,6.30
2018-12-30T22:35:24.085Z,6.30
2018-12-30T22:37:58.399Z,6.30
2018-12-30T22:40:32.587Z,6.20
2018-12-30T22:43:07.728Z,6.30
2018-12-30T22:45:41.965Z,6.30
2018-12-30T22:48:16.089Z,6.10
2018-12-30T22:50:50.226Z,6.00
2018-12-30T22:53:24.483Z,6.00
2018-12-30T22:55:58.762Z,6.10
2018-12-30T22:58:33.679Z,6.00
2018-12-30T23:01:07.986Z,6.00
2018-12-30T23:03:42.833Z,6.10
2018-12-30T23:06:16.936Z,6.10
2018-12-30T23:08:51.051Z,6.10
2018-12-30T23:11:25.392Z,6.10
2018-12-30T23:13:59.538Z,6.10
2018-12-30T23:16:34.531Z,6.30
2018-12-30T23:19:08.781Z,6.30
2018-12-30T23:21:42.861Z,6.20
2018-12-30T23:24:17.199Z,6.30
2018-12-30T23:26:51.537Z,6.20
2018-12-30T23:29:25.560Z,6.10
2018-12-30T23:31:59.865Z,6.30
2018-12-30T23:34:34.159Z,6.20
2018-12-30T23:37:08.452Z,6.30
2018-12-30T23:39:42.735Z,6.30
2018-12-30T23:42:17.356Z,6.30
2018-12-30T23:44:52.492Z,6.30
2018-12-30T23:47:26.563Z,6.20
2018-12-30T23:50:01.380Z,6.30
2018-12-30T23:52:35.518Z,6.30
2018-12-30T23:55:09.777Z,6.30
2018-12-30T23:57:44.198Z,6.50
